Time;durP1;ratioP1;P1;durP2;ratioP2;P2;SDS_P1;SDS_P2;PMS_P1;PMS_P2;Temp;Humidity;BMP_temperature;BMP_pressure;BME280_temperature;BME280_humidity;BME280_pressure;Samples;Min_cycle;Max_cycle;Signal;HPM_P1;HPM_P2
2022/08/05 00:01:45;;;;;;;3.00;2.80;;;;;;;26.01;59.92;96328.88;5064818;28;20235;-57
2022/08/05 00:04:11;;;;;;;3.20;2.90;;;;;;;26.02;59.76;96335.97;5063386;28;20212;-56
2022/08/05 00:06:38;;;;;;;3.00;2.80;;;;;;;26.17;58.18;96329.94;5056483;28;20214;-55
2022/08/05 00:09:05;;;;;;;3.00;2.80;;;;;;;26.22;58.00;96327.34;5053913;28;20249;-57
2022/08/05 00:11:32;;;;;;;3.30;3.10;;;;;;;26.31;56.62;96333.16;5052879;28;20231;-55
2022/08/05 00:13:59;;;;;;;3.22;2.92;;;;;;;26.41;54.31;96331.41;5053503;28;20694;-55
2022/08/05 00:16:25;;;;;;;2.60;2.40;;;;;;;26.59;52.00;96338.44;5053483;28;20610;-57
2022/08/05 00:18:53;;;;;;;2.92;2.75;;;;;;;26.80;51.44;96334.09;5053869;28;20199;-55
2022/08/05 00:21:20;;;;;;;3.05;2.70;;;;;;;26.91;51.04;96342.16;5053537;28;20210;-56
2022/08/05 00:23:47;;;;;;;2.72;2.60;;;;;;;27.01;50.72;96341.44;5053952;28;20286;-56
2022/08/05 00:26:16;;;;;;;3.67;3.17;;;;;;;27.13;50.66;96347.56;5053887;28;20207;-56
2022/08/05 00:28:43;;;;;;;2.90;2.70;;;;;;;27.21;50.72;96342.47;5053588;28;20518;-57
2022/08/05 00:31:10;;;;;;;3.00;2.70;;;;;;;27.37;50.08;96351.63;5053845;28;20284;-55
2022/08/05 00:33:36;;;;;;;2.80;2.60;;;;;;;27.40;50.33;96350.28;5053813;28;20642;-56
2022/08/05 00:36:05;;;;;;;3.03;2.83;;;;;;;27.41;50.22;96357.38;5053921;28;20234;-56
2022/08/05 00:38:32;;;;;;;2.65;2.45;;;;;;;27.42;50.56;96364.44;5041419;28;20241;-56
2022/08/05 00:40:59;;;;;;;3.15;2.95;;;;;;;27.41;51.15;96373.66;5053093;28;20605;-57
2022/08/05 00:43:25;;;;;;;3.00;2.80;;;;;;;27.35;52.11;96367.34;5054240;28;20230;-55
2022/08/05 00:45:52;;;;;;;3.33;3.03;;;;;;;27.26;57.03;96374.31;5053744;28;20282;-57
2022/08/05 00:48:20;;;;;;;4.00;2.92;;;;;;;27.14;58.81;96376.31;5053799;28;20638;-56
2022/08/05 00:50:49;;;;;;;3.55;3.10;;;;;;;26.92;62.08;96381.78;5053746;28;20302;-55
2022/08/05 00:53:19;;;;;;;3.60;3.00;;;;;;;26.83;61.03;96393.31;5053492;28;20294;-56
2022/08/05 00:55:48;;;;;;;3.60;3.30;;;;;;;26.68;63.17;96396.59;5048060;28;20237;-57
2022/08/05 00:58:16;;;;;;;3.20;3.08;;;;;;;26.55;61.04;96400.50;5053763;28;20309;-56
2022/08/05 01:00:43;;;;;;;3.90;3.00;;;;;;;26.31;64.45;96400.94;5052716;28;20623;-56
2022/08/05 01:03:10;;;;;;;3.05;2.83;;;;;;;26.11;64.68;96407.63;5053183;28;20611;-55
2022/08/05 01:05:38;;;;;;;3.10;2.80;;;;;;;25.96;65.00;96414.72;5053490;28;20253;-55
2022/08/05 01:08:05;;;;;;;2.83;2.55;;;;;;;25.77;67.05;96424.13;5045819;28;20196;-56
2022/08/05 01:10:37;;;;;;;2.85;2.65;;;;;;;25.58;65.25;96424.31;5049119;28;20295;-56
2022/08/05 01:13:08;;;;;;;2.58;2.15;;;;;;;25.41;63.05;96439.66;5048533;28;20200;-57
2022/08/05 01:15:40;;;;;;;2.30;2.20;;;;;;;25.34;61.08;96438.97;5046072;28;20288;-54
2022/08/05 01:18:12;;;;;;;2.55;2.35;;;;;;;25.32;60.35;96429.47;5053314;28;20212;-55
2022/08/05 01:20:50;;;;;;;2.50;2.40;;;;;;;25.23;61.21;96431.72;5042537;28;20273;-56
2022/08/05 01:23:26;;;;;;;2.50;2.30;;;;;;;25.22;60.82;96425.47;5055131;28;20579;-55
2022/08/05 01:26:03;;;;;;;2.58;2.38;;;;;;;25.18;61.33;96424.34;5057592;28;20210;-56
2022/08/05 01:28:36;;;;;;;2.30;2.20;;;;;;;25.12;61.10;96446.91;5057485;28;20199;-55
2022/08/05 01:31:08;;;;;;;2.28;2.17;;;;;;;25.12;61.30;96451.50;5057284;28;20298;-55
2022/08/05 01:33:39;;;;;;;4.00;2.58;;;;;;;25.09;61.94;96463.66;5057479;28;20261;-56
2022/08/05 01:36:10;;;;;;;2.22;2.00;;;;;;;25.10;61.49;96461.75;5057656;28;20238;-54
2022/08/05 01:38:37;;;;;;;3.42;2.10;;;;;;;25.05;63.34;96454.34;5057357;28;20215;-55
2022/08/05 01:41:06;;;;;;;2.63;2.05;;;;;;;25.01;63.28;96471.31;5057179;28;20243;-55
2022/08/05 01:43:34;;;;;;;2.28;2.15;;;;;;;24.99;63.44;96466.13;5056983;28;20647;-55
2022/08/05 01:46:01;;;;;;;2.60;2.40;;;;;;;24.85;66.51;96451.22;5057433;28;20639;-55
2022/08/05 01:48:30;;;;;;;2.58;2.30;;;;;;;24.61;70.52;96439.56;5057132;28;20322;-55
2022/08/05 01:50:57;;;;;;;2.55;2.35;;;;;;;24.47;71.33;96421.94;5057326;28;20592;-55
2022/08/05 01:53:24;;;;;;;2.78;2.65;;;;;;;24.32;72.79;96412.66;5057252;28;20242;-55
2022/08/05 01:55:52;;;;;;;2.90;2.60;;;;;;;24.14;73.97;96421.69;5056886;28;20286;-55
2022/08/05 01:58:19;;;;;;;2.50;2.40;;;;;;;23.98;74.15;96423.16;5056547;28;20262;-56
2022/08/05 02:00:51;;;;;;;2.70;2.50;;;;;;;23.91;73.59;96422.44;5056807;28;20246;-55
2022/08/05 02:03:23;;;;;;;2.90;2.70;;;;;;;23.87;73.98;96428.53;5061442;28;20207;-55
2022/08/05 02:05:51;;;;;;;2.80;2.60;;;;;;;23.81;73.88;96426.78;5063811;28;20226;-54
2022/08/05 02:08:17;;;;;;;2.97;2.40;;;;;;;23.76;73.01;96425.59;5068867;28;20215;-55
2022/08/05 02:10:47;;;;;;;2.38;2.28;;;;;;;23.78;71.87;96434.25;5065758;28;20286;-56
2022/08/05 02:13:16;;;;;;;2.85;2.42;;;;;;;23.86;70.48;96434.97;5058809;28;20211;-55
2022/08/05 02:15:45;;;;;;;2.65;2.45;;;;;;;23.87;71.52;96442.03;5047379;28;20221;-54
2022/08/05 02:18:18;;;;;;;2.85;2.30;;;;;;;23.86;72.25;96434.97;5052000;28;20687;-55
2022/08/05 02:20:48;;;;;;;2.35;2.20;;;;;;;23.91;71.55;96430.56;5048890;28;20226;-55
2022/08/05 02:23:16;;;;;;;2.42;2.22;;;;;;;23.91;73.75;96430.56;5056697;28;20222;-54
2022/08/05 02:25:44;;;;;;;2.55;2.45;;;;;;;23.92;73.40;96436.75;5055978;28;20552;-55
2022/08/05 02:28:13;;;;;;;2.60;2.50;;;;;;;23.91;73.79;96429.72;5056635;28;20234;-55
2022/08/05 02:30:44;;;;;;;2.50;2.30;;;;;;;23.95;73.72;96437.13;5056031;28;20298;-55
2022/08/05 02:33:11;;;;;;;3.88;2.47;;;;;;;23.95;74.87;96428.22;5056574;28;20242;-55
2022/08/05 02:35:42;;;;;;;2.60;2.50;;;;;;;23.95;74.41;96441.72;5055460;28;20228;-55
2022/08/05 02:38:10;;;;;;;2.60;2.40;;;;;;;23.99;73.28;96442.88;5056300;28;20255;-54
2022/08/05 02:40:38;;;;;;;2.70;2.60;;;;;;;24.03;72.02;96449.47;5056089;28;20261;-55
2022/08/05 02:43:06;;;;;;;4.32;4.03;;;;;;;24.04;70.50;96448.41;5056667;28;20293;-55
2022/08/05 02:45:33;;;;;;;2.60;2.50;;;;;;;23.97;74.08;96455.81;5049129;28;20231;-54
2022/08/05 02:48:01;;;;;;;2.95;2.50;;;;;;;23.91;77.42;96443.22;5055895;28;20261;-55
2022/08/05 02:50:28;;;;;;;2.30;2.20;;;;;;;23.87;75.99;96444.75;5055914;28;20238;-55
2022/08/05 02:52:56;;;;;;;2.53;2.42;;;;;;;23.88;74.60;96449.09;5055887;28;20636;-54
2022/08/05 02:55:23;;;;;;;2.40;2.30;;;;;;;23.87;73.04;96439.34;5056064;28;20251;-55
2022/08/05 02:57:50;;;;;;;2.50;2.30;;;;;;;23.85;74.02;96444.13;5055560;28;20313;-54
2022/08/05 03:00:17;;;;;;;2.50;2.30;;;;;;;23.78;75.80;96447.75;5055262;28;20203;-55
2022/08/05 03:02:45;;;;;;;2.50;2.40;;;;;;;23.70;77.02;96450.78;5055236;28;20651;-54
2022/08/05 03:05:12;;;;;;;2.30;2.20;;;;;;;23.53;78.43;96439.00;5055549;28;20211;-55
2022/08/05 03:07:39;;;;;;;2.38;2.28;;;;;;;23.46;80.28;96440.94;5055787;28;20257;-55
2022/08/05 03:10:09;;;;;;;3.55;2.45;;;;;;;23.46;76.05;96429.31;5055572;28;20238;-55
2022/08/05 03:12:36;;;;;;;2.42;2.30;;;;;;;23.45;75.52;96428.53;5055644;28;20586;-55
2022/08/05 03:15:06;;;;;;;2.40;2.20;;;;;;;23.44;77.14;96426.06;5055362;28;20239;-55
2022/08/05 03:17:32;;;;;;;2.50;2.30;;;;;;;23.41;77.50;96427.34;5055076;28;20317;-55
2022/08/05 03:19:59;;;;;;;2.53;2.38;;;;;;;23.30;82.15;96420.81;5055120;28;20214;-54
2022/08/05 03:22:26;;;;;;;2.60;2.50;;;;;;;23.22;82.24;96418.41;5055346;28;20309;-57
2022/08/05 03:24:53;;;;;;;2.55;2.42;;;;;;;23.27;79.83;96412.34;5055272;28;20624;-55
2022/08/05 03:27:22;;;;;;;2.63;2.42;;;;;;;23.14;79.60;96420.59;5055129;28;20234;-55
2022/08/05 03:29:48;;;;;;;2.40;2.20;;;;;;;23.05;81.75;96419.25;5054386;28;20221;-54
2022/08/05 03:32:15;;;;;;;2.63;2.45;;;;;;;22.90;82.21;96413.44;5054810;28;20290;-54
2022/08/05 03:34:42;;;;;;;2.45;2.30;;;;;;;22.73;81.79;96408.66;5055141;28;20302;-55
2022/08/05 03:37:09;;;;;;;2.33;2.20;;;;;;;22.74;83.46;96414.88;5055136;28;20206;-55
2022/08/05 03:39:36;;;;;;;2.40;2.30;;;;;;;22.66;84.05;96407.88;5055004;28;20296;-55
2022/08/05 03:42:03;;;;;;;2.30;2.20;;;;;;;22.66;81.50;96402.47;5054956;28;20238;-54
2022/08/05 03:44:31;;;;;;;2.47;2.28;;;;;;;22.61;81.45;96409.56;5054982;28;20203;-55
2022/08/05 03:46:57;;;;;;;2.15;2.05;;;;;;;22.58;81.63;96399.25;5054782;28;20211;-54
2022/08/05 03:49:24;;;;;;;2.50;2.30;;;;;;;22.60;81.13;96397.16;5054653;28;20266;-54
2022/08/05 03:51:54;;;;;;;2.28;2.17;;;;;;;22.51;82.39;96404.69;5054884;28;20235;-55
2022/08/05 03:54:27;;;;;;;2.22;2.10;;;;;;;22.51;80.31;96399.31;5054890;28;20234;-54
2022/08/05 03:56:54;;;;;;;2.70;2.50;;;;;;;22.43;82.87;96401.47;5054791;28;20210;-55
2022/08/05 03:59:24;;;;;;;2.50;2.30;;;;;;;22.31;84.71;96404.09;5054681;28;20241;-54
2022/08/05 04:01:53;;;;;;;2.40;2.30;;;;;;;22.17;86.69;96402.56;5054758;28;20530;-54
2022/08/05 04:04:21;;;;;;;2.85;2.55;;;;;;;22.17;86.18;96391.78;5054420;28;20301;-54
2022/08/05 04:06:48;;;;;;;2.63;2.53;;;;;;;22.15;86.88;96396.56;5054924;28;20206;-54
2022/08/05 04:09:16;;;;;;;2.20;2.10;;;;;;;22.16;86.88;96395.53;5054719;28;20203;-54
2022/08/05 04:11:42;;;;;;;2.25;2.05;;;;;;;22.06;88.30;96395.19;5054279;28;20294;-54
2022/08/05 04:14:09;;;;;;;2.45;2.25;;;;;;;22.09;87.41;96389.38;5054319;28;20297;-55
2022/08/05 04:16:36;;;;;;;2.78;2.50;;;;;;;22.11;87.37;96392.66;5054656;28;20249;-55
2022/08/05 04:19:04;;;;;;;2.88;2.78;;;;;;;22.05;88.21;96393.53;5054459;28;20234;-55
2022/08/05 04:21:31;;;;;;;3.00;2.55;;;;;;;22.02;88.45;96391.28;5054235;28;20207;-54
2022/08/05 04:23:58;;;;;;;2.30;2.20;;;;;;;21.90;90.29;96388.47;5054325;28;20243;-54
2022/08/05 04:26:27;;;;;;;2.67;2.55;;;;;;;21.93;90.19;96392.63;5054493;28;20226;-54
2022/08/05 04:28:53;;;;;;;2.80;2.58;;;;;;;21.91;90.04;96383.94;5054361;28;20202;-54
2022/08/05 04:31:20;;;;;;;2.72;2.53;;;;;;;21.93;89.44;96384.56;5054446;28;20234;-56
2022/08/05 04:33:47;;;;;;;2.63;2.50;;;;;;;21.91;89.98;96390.16;5054113;28;20301;-54
2022/08/05 04:36:15;;;;;;;2.88;2.67;;;;;;;21.94;88.34;96387.00;5054367;28;20235;-54
2022/08/05 04:38:42;;;;;;;2.30;2.20;;;;;;;21.93;88.80;96385.34;5053909;28;20223;-54
2022/08/05 04:41:09;;;;;;;2.58;2.40;;;;;;;21.92;89.89;96393.66;5041098;28;20211;-54
2022/08/05 04:43:35;;;;;;;2.55;2.35;;;;;;;22.01;86.31;96392.34;5054439;28;20534;-53
2022/08/05 04:46:03;;;;;;;2.45;2.35;;;;;;;22.05;85.19;96401.63;5047762;28;20257;-55
2022/08/05 04:48:30;;;;;;;2.97;2.78;;;;;;;22.02;88.35;96402.91;5054044;28;20306;-55
2022/08/05 04:50:57;;;;;;;2.95;2.70;;;;;;;22.03;89.33;96406.41;5054387;28;20234;-54
2022/08/05 04:53:26;;;;;;;2.75;2.55;;;;;;;22.05;89.19;96413.22;5054156;28;20631;-55
2022/08/05 04:55:52;;;;;;;2.50;2.40;;;;;;;22.03;89.27;96409.13;5054284;28;20203;-55
2022/08/05 04:58:28;;;;;;;2.30;2.20;;;;;;;22.06;90.15;96416.75;5055814;28;20266;-55
2022/08/05 05:00:54;;;;;;;2.28;2.17;;;;;;;22.10;90.33;96407.19;5058185;28;20207;-55
2022/08/05 05:03:21;;;;;;;2.80;2.60;;;;;;;22.09;91.15;96417.13;5055357;28;20291;-54
2022/08/05 05:05:48;;;;;;;2.95;2.70;;;;;;;22.14;91.10;96416.47;5047351;28;20231;-55
2022/08/05 05:08:14;;;;;;;4.40;2.97;;;;;;;22.18;90.13;96426.56;5057892;28;20202;-54
2022/08/05 05:10:44;;;;;;;2.90;2.70;;;;;;;22.18;92.58;96413.09;5057871;28;20231;-55
2022/08/05 05:13:12;;;;;;;2.72;2.53;;;;;;;22.25;91.11;96415.72;5058116;28;20289;-54
2022/08/05 05:15:39;;;;;;;2.70;2.50;;;;;;;22.28;90.74;96415.31;5057698;28;20306;-55
2022/08/05 05:18:06;;;;;;;4.63;2.85;;;;;;;22.29;89.71;96411.56;5057751;28;20211;-54
2022/08/05 05:20:33;;;;;;;4.05;3.75;;;;;;;22.33;90.45;96408.19;5057638;28;20249;-55
2022/08/05 05:23:03;;;;;;;3.40;2.90;;;;;;;22.36;92.60;96404.22;5057745;28;20314;-55
2022/08/05 05:25:30;;;;;;;2.95;2.78;;;;;;;22.50;89.85;96402.22;5057545;28;20226;-54
2022/08/05 05:27:58;;;;;;;2.95;2.75;;;;;;;22.72;89.07;96404.28;5052317;28;20242;-55
2022/08/05 05:30:25;;;;;;;3.25;2.75;;;;;;;22.95;89.52;96403.63;5049620;28;20235;-55
2022/08/05 05:32:51;;;;;;;2.90;2.70;;;;;;;23.22;88.20;96412.19;5057267;28;20212;-55
2022/08/05 05:35:18;;;;;;;2.75;2.55;;;;;;;23.71;81.61;96413.81;5045032;28;20291;-47
2022/08/05 05:37:48;;;;;;;2.50;2.30;;;;;;;24.15;81.06;96412.53;5055942;28;20597;-47
2022/08/05 05:40:16;;;;;;;2.53;2.35;;;;;;;24.55;75.84;96412.66;5057113;28;20245;-46
2022/08/05 05:42:43;;;;;;;3.10;2.90;;;;;;;25.03;73.28;96410.50;5044303;28;20213;-48
2022/08/05 05:45:11;;;;;;;2.95;2.63;;;;;;;25.33;72.71;96418.38;5057062;28;20230;-46
2022/08/05 05:47:38;;;;;;;2.38;2.25;;;;;;;25.92;68.79;96416.25;5057112;28;20629;-47
2022/08/05 05:50:05;;;;;;;2.50;2.22;;;;;;;26.52;66.69;96419.16;5056666;28;20318;-48
2022/08/05 05:52:32;;;;;;;2.22;2.03;;;;;;;27.02;64.09;96419.09;5057458;28;20294;-46
2022/08/05 05:54:59;;;;;;;3.08;2.75;;;;;;;27.18;64.99;96426.34;5057347;28;20245;-48
2022/08/05 05:57:26;;;;;;;2.95;2.55;;;;;;;27.43;62.40;96426.63;5057250;28;20207;-47
2022/08/05 05:59:52;;;;;;;2.45;2.25;;;;;;;27.74;60.80;96421.59;5056982;28;20255;-46
2022/08/05 06:02:20;;;;;;;2.00;1.90;;;;;;;28.07;59.60;96429.53;5057336;28;20617;-47
2022/08/05 06:04:47;;;;;;;2.78;2.58;;;;;;;27.96;59.68;96435.91;5057054;28;20288;-47
2022/08/05 06:07:15;;;;;;;3.15;2.90;;;;;;;27.61;63.30;96450.78;5057244;28;20666;-46
2022/08/05 06:09:41;;;;;;;2.47;2.30;;;;;;;27.79;60.27;96459.66;5055225;28;20207;-47
2022/08/05 06:12:08;;;;;;;3.53;2.40;;;;;;;27.70;60.34;96465.53;5056964;28;20306;-47
2022/08/05 06:14:35;;;;;;;2.55;2.35;;;;;;;27.80;60.48;96470.28;5056203;28;20236;-48
2022/08/05 06:17:02;;;;;;;2.38;2.28;;;;;;;27.85;61.63;96470.31;5056713;28;20203;-47
2022/08/05 06:19:30;;;;;;;2.05;1.90;;;;;;;27.97;59.71;96481.88;5056520;28;20262;-47
2022/08/05 06:21:57;;;;;;;2.58;1.98;;;;;;;28.33;58.07;96487.69;5057517;28;20297;-47
2022/08/05 06:24:23;;;;;;;2.30;2.10;;;;;;;28.46;57.28;96495.41;5057797;28;20199;-48
2022/08/05 06:26:50;;;;;;;2.97;1.75;;;;;;;28.49;56.88;96500.34;5057303;28;20207;-46
2022/08/05 06:29:16;;;;;;;3.03;2.55;;;;;;;27.32;60.67;96505.53;5058561;28;20211;-47
2022/08/05 06:31:43;;;;;;;5.57;2.80;;;;;;;26.89;61.70;96506.31;5056601;28;20207;-47
2022/08/05 06:34:10;;;;;;;2.70;2.50;;;;;;;26.75;63.18;96494.13;5056400;28;20302;-45
2022/08/05 06:36:38;;;;;;;3.65;2.67;;;;;;;26.48;67.61;96494.78;5056666;28;20202;-47
2022/08/05 06:39:04;;;;;;;2.78;2.40;;;;;;;26.57;64.97;96493.28;5055910;28;20260;-47
2022/08/05 06:41:31;;;;;;;3.63;2.40;;;;;;;26.99;63.11;96501.00;5056083;28;20270;-46
2022/08/05 06:43:58;;;;;;;3.53;2.25;;;;;;;27.49;61.63;96500.91;5055993;28;20245;-48
2022/08/05 06:46:24;;;;;;;2.80;2.50;;;;;;;27.88;59.33;96523.38;5056010;28;20210;-46
2022/08/05 06:48:51;;;;;;;4.28;2.30;;;;;;;28.22;58.23;96530.28;5055697;28;20329;-46
2022/08/05 06:51:18;;;;;;;2.33;2.22;;;;;;;27.47;64.58;96514.72;5055898;28;20611;-46
2022/08/05 06:53:46;;;;;;;4.80;2.67;;;;;;;27.66;60.65;96512.53;5055529;28;20298;-46
2022/08/05 06:56:12;;;;;;;4.05;2.30;;;;;;;28.23;58.92;96523.78;5055586;28;20283;-46
2022/08/05 06:58:39;;;;;;;2.55;2.30;;;;;;;28.62;58.71;96530.66;5055863;28;20211;-47
2022/08/05 07:01:06;;;;;;;2.40;2.22;;;;;;;28.80;58.76;96539.56;5056011;28;20218;-47
2022/08/05 07:03:33;;;;;;;2.30;2.03;;;;;;;28.76;58.76;96547.41;5055800;28;20222;-46
2022/08/05 07:06:02;;;;;;;2.35;2.00;;;;;;;28.77;57.65;96537.34;5056017;28;20231;-46
2022/08/05 07:08:29;;;;;;;1.70;1.60;;;;;;;28.14;55.50;96536.19;5056196;28;20394;-47
2022/08/05 07:10:57;;;;;;;2.50;1.55;;;;;;;27.77;55.85;96544.19;5056479;28;20295;-46
2022/08/05 07:18:52;;;;;;;1.60;1.40;;;;;;;26.75;59.62;96535.59;5055690;28;20690;-46
2022/08/05 07:21:18;;;;;;;5.68;1.85;;;;;;;26.90;59.45;96532.34;5055374;28;20246;-46
2022/08/05 07:23:45;;;;;;;3.50;1.73;;;;;;;27.21;59.73;96542.56;5056077;28;20282;-48
2022/08/05 07:26:13;;;;;;;2.13;2.03;;;;;;;27.02;63.13;96549.38;5055711;28;20535;-47
2022/08/05 07:28:40;;;;;;;2.10;1.90;;;;;;;26.89;61.94;96555.16;5056564;28;20663;-46
2022/08/05 07:31:07;;;;;;;2.10;2.00;;;;;;;26.95;63.93;96559.56;5056558;28;20238;-48
2022/08/05 07:33:33;;;;;;;2.97;1.98;;;;;;;26.96;65.05;96556.59;5055342;28;20238;-47
2022/08/05 07:36:00;;;;;;;1.33;1.33;;;;;;;27.45;59.92;96562.25;5055812;28;20227;-47
2022/08/05 07:38:27;;;;;;;1.60;1.60;;;;;;;28.22;57.59;96570.25;5055732;28;20569;-47
2022/08/05 07:40:54;;;;;;;1.90;1.80;;;;;;;28.70;56.65;96567.47;5055489;28;20744;-47
2022/08/05 07:43:22;;;;;;;2.20;2.00;;;;;;;28.60;57.55;96562.75;5056618;28;20243;-46
2022/08/05 07:45:48;;;;;;;1.73;1.63;;;;;;;28.30;55.87;96567.91;5051638;28;20203;-46
2022/08/05 07:48:15;;;;;;;1.90;1.80;;;;;;;28.76;55.84;96573.81;5056640;28;20262;-47
2022/08/05 07:50:42;;;;;;;1.63;1.63;;;;;;;29.02;55.43;96575.63;5056542;28;20689;-47
2022/08/05 07:53:09;;;;;;;2.17;1.98;;;;;;;29.22;53.52;96570.34;5057245;28;20249;-47
2022/08/05 07:55:37;;;;;;;1.80;1.70;;;;;;;29.47;51.82;96564.25;5057189;28;20218;-47
2022/08/05 07:58:03;;;;;;;1.70;1.60;;;;;;;29.87;51.92;96575.38;5057226;28;20275;-46
2022/08/05 08:00:31;;;;;;;17.77;4.40;;;;;;;29.88;53.60;96579.75;5056528;28;20313;-47
2022/08/05 08:02:58;;;;;;;2.13;1.77;;;;;;;30.28;50.56;96583.69;5057049;28;20278;-47
2022/08/05 08:05:26;;;;;;;5.90;2.20;;;;;;;30.41;49.71;96580.44;5056813;28;20286;-45
2022/08/05 08:07:54;;;;;;;7.28;2.13;;;;;;;30.22;50.52;96577.41;5056664;28;20590;-46
2022/08/05 08:10:21;;;;;;;2.08;1.80;;;;;;;29.59;52.50;96582.03;5061950;28;20199;-47
2022/08/05 08:12:47;;;;;;;2.38;1.70;;;;;;;29.37;52.08;96589.53;5066166;28;20267;-46
2022/08/05 08:15:14;;;;;;;5.32;1.85;;;;;;;29.38;52.16;96598.53;5062448;28;20223;-47
2022/08/05 08:17:44;;;;;;;2.13;2.00;;;;;;;28.92;52.87;96594.63;5066884;28;20217;-47
2022/08/05 08:20:11;;;;;;;7.47;1.88;;;;;;;28.22;52.36;96597.44;5074874;28;20207;-46
2022/08/05 08:22:38;;;;;;;2.20;1.90;;;;;;;28.74;52.32;96600.44;5074822;28;20206;-47
2022/08/05 08:25:06;;;;;;;4.13;2.38;;;;;;;29.13;53.01;96599.97;5072885;28;20203;-48
2022/08/05 08:27:32;;;;;;;1.80;1.70;;;;;;;29.61;50.32;96598.97;5058409;28;20659;-47
2022/08/05 08:29:59;;;;;;;1.83;1.73;;;;;;;30.04;50.20;96602.47;5070044;28;20214;-48
2022/08/05 08:32:26;;;;;;;2.40;2.20;;;;;;;30.39;50.71;96597.13;5072742;28;20194;-48
2022/08/05 08:34:54;;;;;;;2.50;2.08;;;;;;;30.32;48.20;96599.28;5056728;28;20208;-46
2022/08/05 08:37:21;;;;;;;2.47;2.28;;;;;;;30.20;49.11;96600.59;5066016;28;20207;-46
2022/08/05 08:39:48;;;;;;;4.97;2.28;;;;;;;30.26;49.39;96604.97;5063750;28;20804;-47
2022/08/05 08:42:14;;;;;;;2.10;2.00;;;;;;;30.35;49.03;96606.91;5058002;28;20282;-46
2022/08/05 08:44:42;;;;;;;3.08;2.30;;;;;;;30.55;49.96;96600.69;5057785;28;20767;-45
2022/08/05 08:47:08;;;;;;;1.90;1.80;;;;;;;31.02;48.95;96611.44;5058394;28;20222;-47
2022/08/05 08:49:36;;;;;;;1.80;1.70;;;;;;;31.07;48.13;96601.31;5062839;28;20242;-48
2022/08/05 08:52:10;;;;;;;2.08;1.98;;;;;;;30.61;46.52;96605.91;5061989;28;20207;-45
2022/08/05 08:54:36;;;;;;;2.25;2.05;;;;;;;30.73;47.82;96602.09;5054386;28;20226;-46
2022/08/05 08:57:05;;;;;;;2.08;1.88;;;;;;;31.07;47.03;96600.53;5058421;28;20243;-47
2022/08/05 08:59:32;;;;;;;2.05;1.95;;;;;;;30.89;44.34;96610.00;5057784;28;20258;-47
2022/08/05 09:01:58;;;;;;;2.35;1.90;;;;;;;31.19;46.08;96601.03;5056250;28;20238;-46
2022/08/05 09:04:25;;;;;;;2.88;2.17;;;;;;;31.53;46.18;96601.31;5057946;28;20227;-47
2022/08/05 09:06:52;;;;;;;3.38;3.13;;;;;;;31.75;46.70;96603.69;5057511;28;20290;-47
2022/08/05 09:09:20;;;;;;;2.00;1.90;;;;;;;31.88;43.90;96597.66;5057454;28;20326;-47
2022/08/05 09:11:47;;;;;;;2.25;1.90;;;;;;;31.96;44.46;96606.09;5058079;28;20353;-46
2022/08/05 09:14:14;;;;;;;2.00;1.90;;;;;;;32.11;44.40;96596.22;5057850;28;20249;-47
2022/08/05 09:16:40;;;;;;;2.35;1.90;;;;;;;32.05;41.45;96600.88;5057888;28;20245;-46
2022/08/05 09:19:08;;;;;;;1.77;1.67;;;;;;;32.09;42.12;96593.78;5057802;28;20286;-47
2022/08/05 09:21:34;;;;;;;2.00;1.70;;;;;;;32.32;42.59;96595.00;5057733;28;20539;-46
2022/08/05 09:24:07;;;;;;;1.60;1.50;;;;;;;32.50;42.44;96592.44;5054475;28;20226;-47
2022/08/05 09:26:36;;;;;;;2.08;1.98;;;;;;;32.37;41.72;96595.81;5051343;28;20543;-46
2022/08/05 09:29:05;;;;;;;1.55;1.52;;;;;;;32.39;40.17;96592.78;5049197;28;20207;-46
2022/08/05 09:31:33;;;;;;;2.83;1.65;;;;;;;32.69;42.30;96592.63;5051024;28;20205;-47
2022/08/05 09:34:02;;;;;;;2.10;1.50;;;;;;;32.68;39.97;96590.16;5051411;28;20202;-48
2022/08/05 09:36:40;;;;;;;1.90;1.80;;;;;;;32.71;42.00;96590.41;5048638;28;20300;-46
2022/08/05 09:39:08;;;;;;;2.72;1.90;;;;;;;32.43;40.64;96578.25;5051178;28;20199;-47
2022/08/05 09:41:54;;;;;;;2.03;1.80;;;;;;;32.53;42.45;96578.19;5048913;28;20322;-46
2022/08/05 09:44:33;;;;;;;1.90;1.80;;;;;;;32.81;41.69;96567.59;5055612;28;20195;-46
2022/08/05 09:47:07;;;;;;;1.98;1.85;;;;;;;32.87;40.88;96566.47;5053356;28;20209;-48
2022/08/05 09:49:34;;;;;;;1.90;1.80;;;;;;;32.97;40.36;96564.47;5056681;28;20238;-47
2022/08/05 09:52:17;;;;;;;1.70;1.60;;;;;;;32.96;40.57;96559.25;5054159;28;20300;-46
2022/08/05 09:54:52;;;;;;;1.77;1.67;;;;;;;32.79;42.09;96556.13;5048672;28;20423;-46
2022/08/05 09:57:34;;;;;;;2.15;2.00;;;;;;;32.99;40.72;96551.28;5057104;28;20234;-47
2022/08/05 10:00:04;;;;;;;1.95;1.85;;;;;;;32.74;41.14;96540.53;5056638;28;20215;-46
2022/08/05 10:02:32;;;;;;;1.90;1.80;;;;;;;32.89;40.41;96542.34;5057000;28;20207;-47
2022/08/05 10:05:04;;;;;;;1.88;1.77;;;;;;;33.18;40.60;96542.38;5056909;28;20290;-48
2022/08/05 10:07:43;;;;;;;1.88;1.77;;;;;;;33.43;39.81;96542.94;5050201;28;20223;-47
2022/08/05 10:10:10;;;;;;;1.98;1.75;;;;;;;33.51;39.75;96544.25;5072295;28;20191;-46
2022/08/05 10:12:42;;;;;;;2.10;2.00;;;;;;;33.39;39.83;96532.84;5063385;28;20211;-52
2022/08/05 10:15:17;;;;;;;2.75;2.00;;;;;;;33.45;39.67;96537.97;5058630;28;20230;-50
2022/08/05 10:17:44;;;;;;;2.25;2.15;;;;;;;33.70;40.36;96538.81;5056508;28;20257;-50
2022/08/05 10:20:11;;;;;;;2.25;2.15;;;;;;;33.74;39.48;96537.13;5056621;28;20321;-52
2022/08/05 10:22:39;;;;;;;2.05;1.85;;;;;;;33.74;37.79;96537.13;5056551;28;20207;-50
2022/08/05 10:25:06;;;;;;;2.03;1.92;;;;;;;33.66;37.33;96529.56;5047506;28;20235;-50
2022/08/05 10:27:34;;;;;;;1.90;1.80;;;;;;;33.87;38.40;96528.22;5052203;28;20261;-49
2022/08/05 10:30:02;;;;;;;3.20;1.77;;;;;;;33.51;36.77;96534.06;5056090;28;20855;-47
2022/08/05 10:32:28;;;;;;;2.00;1.90;;;;;;;33.70;37.20;96531.41;5056031;28;20717;-49
2022/08/05 10:34:57;;;;;;;1.80;1.73;;;;;;;33.32;39.10;96530.44;5055727;28;20700;-50
2022/08/05 10:37:24;;;;;;;1.67;1.63;;;;;;;33.41;39.32;96528.69;5055892;28;20610;-46
2022/08/05 10:39:51;;;;;;;1.90;1.80;;;;;;;33.12;39.73;96527.94;5056021;28;20238;-46
2022/08/05 10:42:22;;;;;;;2.17;2.08;;;;;;;32.67;39.30;96523.63;5055976;28;20640;-47
2022/08/05 10:44:49;;;;;;;3.63;2.13;;;;;;;33.01;39.17;96524.44;5056715;28;20644;-48
2022/08/05 10:47:18;;;;;;;2.55;2.05;;;;;;;33.22;41.12;96518.78;5055984;28;20598;-48
2022/08/05 10:50:02;;;;;;;1.83;1.73;;;;;;;33.18;39.25;96513.06;5055606;28;20318;-49
2022/08/05 10:52:39;;;;;;;2.00;1.90;;;;;;;32.77;40.05;96518.06;5043012;28;20536;-49
2022/08/05 10:55:08;;;;;;;2.78;1.90;;;;;;;33.33;40.03;96509.34;5055296;28;20202;-52
2022/08/05 10:57:36;;;;;;;3.88;1.77;;;;;;;33.46;38.74;96500.41;5055463;28;20215;-48
2022/08/05 11:00:11;;;;;;;1.90;1.80;;;;;;;33.58;38.53;96508.22;5055259;28;20223;-48
2022/08/05 11:02:39;;;;;;;2.00;1.90;;;;;;;33.14;40.57;96495.56;5055157;28;20631;-51
2022/08/05 11:05:08;;;;;;;1.95;1.85;;;;;;;32.80;40.68;96498.31;5055070;28;20265;-50
2022/08/05 11:07:35;;;;;;;1.98;1.92;;;;;;;32.55;39.08;96499.31;5055359;28;20246;-50
2022/08/05 11:10:02;;;;;;;2.10;1.80;;;;;;;32.99;40.17;96492.94;5055149;28;20249;-49
2022/08/05 11:12:47;;;;;;;2.05;1.95;;;;;;;33.10;39.97;96497.19;5055835;28;20203;-48
2022/08/05 11:15:19;;;;;;;2.13;2.03;;;;;;;33.35;39.86;96491.47;5055834;28;20221;-48
2022/08/05 11:17:48;;;;;;;2.10;2.00;;;;;;;33.44;42.48;96489.72;5055332;28;20213;-50
2022/08/05 11:20:36;;;;;;;2.08;1.98;;;;;;;33.50;39.46;96493.25;5055023;28;20226;-49
2022/08/05 11:23:27;;;;;;;2.17;2.08;;;;;;;33.53;39.57;96493.47;5055417;28;20587;-48
2022/08/05 11:26:05;;;;;;;3.63;2.28;;;;;;;33.59;41.78;96485.16;5055145;28;20600;-49
2022/08/05 11:28:53;;;;;;;9.32;2.10;;;;;;;33.56;38.09;96485.75;5054970;28;20235;-48
2022/08/05 11:31:33;;;;;;;2.10;2.00;;;;;;;33.25;38.87;96486.13;5033247;28;20242;-47
2022/08/05 11:34:08;;;;;;;2.10;1.85;;;;;;;33.56;37.11;96480.28;5034755;28;20694;-47
2022/08/05 11:36:51;;;;;;;2.40;2.20;;;;;;;33.52;38.79;96474.56;5035105;28;20242;-47
2022/08/05 11:39:49;;;;;;;2.00;1.90;;;;;;;33.32;39.30;96475.63;5034921;28;20594;-47
2022/08/05 11:42:17;;;;;;;2.00;1.90;;;;;;;33.16;39.76;96476.88;5034945;28;20199;-48
2022/08/05 11:44:45;;;;;;;4.72;2.30;;;;;;;33.08;37.46;96473.94;5037768;28;20213;-47
2022/08/05 11:47:12;;;;;;;2.33;2.13;;;;;;;33.38;38.95;96468.97;5054450;28;20759;-47